Time;durP1;ratioP1;P1;durP2;ratioP2;P2;SDS_P1;SDS_P2;PMS_P1;PMS_P2;Temp;Humidity;BMP_temperature;BMP_pressure;BME280_temperature;BME280_humidity;BME280_pressure;Samples;Min_cycle;Max_cycle;Signal;HPM_P1;HPM_P2
2023/01/15 00:01:34;;;;;;;11.10;4.18;;;;;;;6.79;92.85;99808.22;5114632;28;20466;-62
2023/01/15 00:04:02;;;;;;;9.00;3.72;;;;;;;6.75;95.11;99809.38;5096049;28;20020;-62
2023/01/15 00:06:29;;;;;;;11.32;4.25;;;;;;;6.76;95.51;99798.69;5114500;28;20072;-62
2023/01/15 00:08:55;;;;;;;7.82;4.00;;;;;;;6.76;95.25;99804.00;5111244;28;20016;-63
2023/01/15 00:11:21;;;;;;;9.50;3.97;;;;;;;6.72;97.05;99804.31;5096366;28;20486;-62
2023/01/15 00:13:47;;;;;;;8.57;4.18;;;;;;;6.73;96.69;99798.91;5114152;28;20068;-62
2023/01/15 00:16:19;;;;;;;12.95;4.78;;;;;;;6.78;96.75;99796.81;5114586;28;20032;-62
2023/01/15 00:18:50;;;;;;;8.48;4.50;;;;;;;6.75;96.64;99793.53;5112547;28;20445;-62
2023/01/15 00:21:15;;;;;;;11.07;4.20;;;;;;;6.75;96.60;99801.47;5114457;28;20023;-62
2023/01/15 00:29:15;;;;;;;9.20;4.63;;;;;;;6.78;93.94;99788.03;5096461;28;20039;-62
2023/01/15 00:31:42;;;;;;;10.65;4.45;;;;;;;6.59;95.84;99773.38;5092744;28;20453;-62
2023/01/15 00:34:08;;;;;;;7.72;4.25;;;;;;;6.71;91.80;99792.88;5105658;28;20024;-63
2023/01/15 00:36:33;;;;;;;9.77;4.32;;;;;;;6.67;92.22;99791.38;5114081;28;20382;-63
2023/01/15 00:39:00;;;;;;;10.25;4.57;;;;;;;6.54;92.64;99774.63;5112438;28;20023;-62
2023/01/15 00:41:25;;;;;;;9.70;4.90;;;;;;;6.67;93.51;99782.59;5114050;28;20091;-63
2023/01/15 00:43:51;;;;;;;9.07;4.72;;;;;;;6.62;91.47;99809.34;5095298;28;20118;-63
2023/01/15 00:46:18;;;;;;;10.57;4.35;;;;;;;6.64;90.44;99803.94;5113878;28;20146;-63
2023/01/15 00:48:44;;;;;;;13.48;4.75;;;;;;;6.60;89.70;99804.13;5099210;28;20020;-63
2023/01/15 00:51:09;;;;;;;9.38;4.20;;;;;;;6.64;90.12;99810.06;5095217;28;20479;-63
2023/01/15 00:53:37;;;;;;;13.73;4.53;;;;;;;6.53;91.66;99810.75;5094613;28;20229;-63
2023/01/15 00:56:03;;;;;;;13.35;4.82;;;;;;;6.54;90.58;99819.53;5094818;28;20070;-63
2023/01/15 00:58:29;;;;;;;10.82;4.47;;;;;;;6.52;89.55;99819.59;5091214;28;20040;-63
2023/01/15 01:00:56;;;;;;;11.38;5.25;;;;;;;6.50;89.68;99810.97;5074768;28;20054;-63
2023/01/15 01:03:22;;;;;;;10.13;4.57;;;;;;;6.52;89.52;99819.59;5092612;28;20107;-63
2023/01/15 01:05:47;;;;;;;12.05;4.65;;;;;;;6.50;90.46;99821.53;5091014;28;20388;-63
2023/01/15 01:08:13;;;;;;;14.40;5.05;;;;;;;6.50;89.32;99824.16;5092932;28;20061;-63
2023/01/15 01:10:38;;;;;;;13.45;5.35;;;;;;;6.58;88.55;99826.31;5094414;28;20026;-63
2023/01/15 01:13:04;;;;;;;12.27;5.05;;;;;;;6.54;88.30;99816.88;5113190;28;20019;-63
2023/01/15 01:15:32;;;;;;;14.32;5.72;;;;;;;6.43;89.18;99820.19;5094413;28;20024;-63
2023/01/15 01:17:57;;;;;;;11.55;4.40;;;;;;;6.44;89.20;99827.19;5112173;28;20038;-63
2023/01/15 01:20:25;;;;;;;12.73;4.22;;;;;;;6.49;88.58;99818.97;5094619;28;20486;-63
2023/01/15 01:22:52;;;;;;;11.75;4.50;;;;;;;6.47;88.63;99818.19;5113198;28;20016;-63
2023/01/15 01:25:18;;;;;;;10.60;4.32;;;;;;;6.49;88.87;99837.44;5096731;28;20020;-63
2023/01/15 01:27:45;;;;;;;14.30;4.93;;;;;;;6.52;88.38;99821.41;5092690;28;20046;-63
2023/01/15 01:30:11;;;;;;;12.98;5.18;;;;;;;6.50;87.77;99810.09;5091442;28;20028;-63
2023/01/15 01:32:37;;;;;;;11.55;4.30;;;;;;;6.45;87.84;99814.81;5091519;28;20491;-63
2023/01/15 01:35:03;;;;;;;13.57;4.70;;;;;;;6.47;87.49;99813.78;5101655;28;20032;-63
2023/01/15 01:37:28;;;;;;;12.93;4.60;;;;;;;6.45;88.50;99820.94;5091638;28;20457;-62
2023/01/15 01:39:55;;;;;;;11.10;4.78;;;;;;;6.46;88.13;99816.50;5090783;28;20406;-63
2023/01/15 01:42:21;;;;;;;10.18;4.80;;;;;;;6.42;87.98;99823.78;5074511;28;20214;-63
2023/01/15 01:44:46;;;;;;;14.10;5.32;;;;;;;6.49;87.67;99822.44;5105320;28;20028;-63
2023/01/15 01:47:21;;;;;;;12.52;4.95;;;;;;;6.40;88.54;99812.47;5112862;28;20031;-62
2023/01/15 01:49:50;;;;;;;9.80;4.25;;;;;;;6.43;87.72;99828.13;5112444;28;20111;-63
2023/01/15 01:52:24;;;;;;;9.30;4.35;;;;;;;6.40;87.91;99814.25;5111854;28;20048;-62
2023/01/15 01:54:50;;;;;;;13.95;4.57;;;;;;;6.39;87.71;99808.13;5110255;28;20042;-63
2023/01/15 01:57:18;;;;;;;9.65;4.75;;;;;;;6.39;88.14;99821.34;5094574;28;20015;-63
2023/01/15 01:59:47;;;;;;;12.82;5.13;;;;;;;6.41;86.70;99816.78;5111878;28;20062;-63
2023/01/15 02:02:14;;;;;;;14.05;5.10;;;;;;;6.44;86.50;99826.31;5112328;28;20530;-63
2023/01/15 02:04:40;;;;;;;13.02;5.20;;;;;;;6.27;88.98;99811.53;5097548;28;20028;-63
2023/01/15 02:07:06;;;;;;;10.95;4.22;;;;;;;6.39;87.44;99820.50;5091804;28;20081;-62
2023/01/15 02:09:31;;;;;;;13.00;4.65;;;;;;;6.33;87.61;99819.91;5090152;28;20035;-63
2023/01/15 02:12:18;;;;;;;9.70;4.82;;;;;;;6.35;86.79;99833.88;5091901;28;20016;-63
2023/01/15 02:15:02;;;;;;;10.30;5.10;;;;;;;6.35;87.82;99830.38;5091486;28;20368;-63
2023/01/15 02:17:53;;;;;;;12.93;4.68;;;;;;;6.36;87.94;99830.28;5090902;28;20031;-63
2023/01/15 02:20:49;;;;;;;12.02;5.10;;;;;;;6.33;88.00;99832.28;5088797;28;20032;-64
2023/01/15 02:23:29;;;;;;;10.98;4.72;;;;;;;6.32;88.35;99830.56;5091124;28;20130;-63
2023/01/15 02:26:15;;;;;;;;;;;;;;;6.48;87.87;99823.41;5090394;28;20046;-63
2023/01/15 02:28:45;;;;;;;15.38;4.72;;;;;;;6.35;85.85;99823.31;5090005;28;19912;-62
2023/01/15 02:31:23;;;;;;;11.93;4.05;;;;;;;6.39;85.85;99807.28;5092923;28;20422;-63
2023/01/15 02:34:11;;;;;;;16.65;5.15;;;;;;;6.34;86.74;99818.97;5101238;28;20032;-62
2023/01/15 02:36:45;;;;;;;9.90;4.65;;;;;;;6.27;86.21;99793.91;5093794;28;20031;-62
2023/01/15 02:39:14;;;;;;;12.73;4.60;;;;;;;6.30;86.13;99808.72;5111740;28;20121;-62
2023/01/15 02:41:47;;;;;;;13.60;5.43;;;;;;;6.36;86.29;99814.44;5094510;28;20024;-62
2023/01/15 02:44:17;;;;;;;13.20;4.75;;;;;;;6.30;86.36;99814.84;5093345;28;20565;-62
2023/01/15 02:46:42;;;;;;;13.30;4.90;;;;;;;6.24;86.67;99804.66;5112179;28;20030;-63
2023/01/15 02:49:12;;;;;;;14.32;5.75;;;;;;;6.26;86.07;99793.97;5093627;28;20032;-63
2023/01/15 02:51:45;;;;;;;11.23;4.57;;;;;;;6.26;85.31;99796.63;5093217;28;20035;-62
2023/01/15 02:54:14;;;;;;;11.73;4.60;;;;;;;6.22;86.22;99803.06;5111292;28;20027;-63
2023/01/15 02:56:43;;;;;;;12.27;5.53;;;;;;;6.17;85.68;99798.03;5112073;28;20028;-63
2023/01/15 02:59:19;;;;;;;10.68;4.93;;;;;;;6.21;85.51;99783.72;5110832;28;20023;-62
2023/01/15 03:02:09;;;;;;;11.73;4.97;;;;;;;6.27;86.01;99793.91;5091677;28;20114;-63
2023/01/15 03:04:59;;;;;;;13.13;5.05;;;;;;;6.30;84.58;99791.06;5091191;28;20073;-63
2023/01/15 03:07:32;;;;;;;13.10;5.18;;;;;;;6.19;84.96;99805.88;5091319;28;20020;-63
2023/01/15 03:09:58;;;;;;;12.07;4.97;;;;;;;6.19;84.44;99797.97;5091857;28;20391;-62
2023/01/15 03:13:01;;;;;;;15.20;5.53;;;;;;;6.17;84.67;99802.47;5089718;28;20016;-63
2023/01/15 03:18:14;;;;;;;16.63;5.32;;;;;;;6.13;84.11;99800.03;5091840;28;20035;-63
2023/01/15 03:20:47;;;;;;;12.20;5.50;;;;;;;6.18;84.15;99809.44;5104190;28;20055;-63
2023/01/15 03:23:17;;;;;;;13.70;5.22;;;;;;;6.21;85.33;99802.22;5111685;28;20110;-63
2023/01/15 03:25:46;;;;;;;;;;;;;;;6.27;85.30;99798.34;5111695;28;20501;-63
2023/01/15 03:28:16;;;;;;;13.90;5.25;;;;;;;6.15;84.94;99799.94;5111613;28;19915;-63
2023/01/15 03:30:43;;;;;;;9.25;4.80;;;;;;;6.11;85.86;99793.97;5113700;28;20039;-63
2023/01/15 03:33:11;;;;;;;9.93;4.93;;;;;;;6.12;84.68;99787.78;5112725;28;20107;-63
2023/01/15 03:35:54;;;;;;;17.38;5.03;;;;;;;6.13;85.40;99791.25;5093731;28;20050;-63
2023/01/15 03:38:34;;;;;;;14.32;5.22;;;;;;;6.08;84.73;99786.25;5094650;28;20020;-63
2023/01/15 03:41:02;;;;;;;11.38;5.15;;;;;;;6.07;83.94;99797.78;5096385;28;20035;-62
2023/01/15 03:44:06;;;;;;;9.93;5.22;;;;;;;6.15;84.02;99802.59;5114864;28;20039;-63
2023/01/15 03:47:06;;;;;;;14.20;4.72;;;;;;;6.12;83.14;99795.69;5096621;28;20070;-63
2023/01/15 03:49:37;;;;;;;12.15;5.03;;;;;;;6.10;83.22;99791.47;5107919;28;20036;-63
2023/01/15 03:52:18;;;;;;;17.42;5.60;;;;;;;6.09;84.03;99800.31;5114017;28;20089;-62
2023/01/15 03:55:06;;;;;;;12.55;4.82;;;;;;;5.99;84.11;99785.97;5096137;28;20485;-63
2023/01/15 03:57:39;;;;;;;14.25;5.30;;;;;;;6.07;83.57;99802.19;5114635;28;20028;-63
2023/01/15 04:00:27;;;;;;;14.48;5.70;;;;;;;6.11;83.46;99803.69;5101627;28;20032;-62
2023/01/15 04:02:55;;;;;;;15.27;5.22;;;;;;;6.01;82.78;99792.88;5094130;28;20486;-63
2023/01/15 04:05:22;;;;;;;14.55;5.72;;;;;;;6.06;82.87;99798.72;5093953;28;20588;-62
2023/01/15 04:07:50;;;;;;;16.10;5.40;;;;;;;6.07;82.45;99789.00;5094566;28;20020;-63
2023/01/15 04:10:15;;;;;;;10.80;4.72;;;;;;;6.07;82.38;99794.28;5094533;28;20030;-63
2023/01/15 04:12:41;;;;;;;13.30;4.78;;;;;;;6.08;83.54;99802.09;5093597;28;20036;-62
2023/01/15 04:15:07;;;;;;;15.20;5.07;;;;;;;6.10;81.76;99805.50;5093985;28;20028;-63
2023/01/15 04:17:34;;;;;;;11.13;4.65;;;;;;;6.05;82.72;99801.44;5075862;28;20035;-63
2023/01/15 04:20:00;;;;;;;14.52;5.53;;;;;;;6.11;82.33;99803.69;5095735;28;20066;-64
2023/01/15 04:22:27;;;;;;;13.43;5.32;;;;;;;6.15;81.55;99794.66;5096122;28;20482;-63
2023/01/15 04:24:53;;;;;;;14.63;5.43;;;;;;;6.23;80.37;99791.53;5095268;28;20035;-63
2023/01/15 04:27:19;;;;;;;11.00;5.05;;;;;;;6.07;81.82;99797.78;5096193;28;20032;-63
2023/01/15 04:29:45;;;;;;;13.60;4.63;;;;;;;6.13;80.84;99784.19;5078721;28;20443;-63
2023/01/15 04:32:10;;;;;;;9.70;4.35;;;;;;;6.00;82.22;99782.38;5095873;28;20385;-63
2023/01/15 04:34:37;;;;;;;14.98;5.00;;;;;;;6.03;83.58;99796.28;5114169;28;20108;-62
2023/01/15 04:37:02;;;;;;;12.63;5.72;;;;;;;6.00;83.17;99795.59;5095796;28;20031;-63
2023/01/15 04:39:28;;;;;;;15.30;5.00;;;;;;;5.95;83.95;99797.69;5119822;27;20422;-63
2023/01/15 04:44:38;;;;;;;17.77;6.28;;;;;;;5.94;84.38;99814.44;5098602;28;20172;-63
2023/01/15 04:47:04;;;;;;;12.93;5.05;;;;;;;5.91;84.12;99813.66;5113898;28;20047;-63
2023/01/15 04:49:29;;;;;;;14.43;4.95;;;;;;;5.95;83.87;99803.81;5106336;28;20059;-63
2023/01/15 04:51:55;;;;;;;15.38;5.30;;;;;;;5.89;84.51;99819.97;5074881;28;20142;-62
2023/01/15 04:54:23;;;;;;;11.50;5.05;;;;;;;5.93;83.74;99813.59;5074531;28;20036;-63
2023/01/15 04:56:52;;;;;;;17.45;6.13;;;;;;;5.86;83.66;99821.00;5092094;28;20467;-63
2023/01/15 04:59:20;;;;;;;14.57;5.45;;;;;;;5.83;83.72;99807.16;5104779;28;20027;-64
2023/01/15 05:01:45;;;;;;;17.35;6.07;;;;;;;5.87;84.48;99816.56;5095612;28;20059;-62
2023/01/15 05:04:13;;;;;;;14.38;5.82;;;;;;;5.82;84.48;99808.91;5113275;28;20070;-63
2023/01/15 05:06:39;;;;;;;15.18;5.43;;;;;;;5.96;82.84;99807.28;5113529;28;20027;-63
2023/01/15 05:09:04;;;;;;;13.93;5.68;;;;;;;5.87;83.91;99824.47;5093924;28;20367;-63
2023/01/15 05:11:30;;;;;;;19.13;6.35;;;;;;;5.85;84.38;99813.16;5113192;28;20394;-63
2023/01/15 05:13:56;;;;;;;11.05;5.13;;;;;;;5.84;84.41;99814.13;5094741;28;20078;-63
2023/01/15 05:16:24;;;;;;;15.02;5.75;;;;;;;5.90;83.30;99816.38;5112354;28;20096;-63
2023/01/15 05:18:54;;;;;;;14.88;5.40;;;;;;;5.85;84.17;99816.69;5102158;28;20024;-63
2023/01/15 05:21:28;;;;;;;15.23;5.72;;;;;;;5.86;85.01;99807.81;5092768;28;20032;-63
2023/01/15 05:23:59;;;;;;;15.57;5.50;;;;;;;5.85;84.34;99808.75;5092501;28;20024;-63
2023/01/15 05:26:25;;;;;;;13.70;5.95;;;;;;;5.89;83.40;99797.06;5091442;28;20054;-62
2023/01/15 05:28:55;;;;;;;11.65;4.82;;;;;;;5.79;83.60;99788.00;5093486;28;20027;-63
2023/01/15 05:31:28;;;;;;;16.42;5.57;;;;;;;5.83;84.92;99802.72;5092571;28;20510;-62
2023/01/15 05:33:56;;;;;;;12.43;5.15;;;;;;;5.81;84.18;99806.38;5103335;28;20012;-63
2023/01/15 05:36:27;;;;;;;13.75;5.18;;;;;;;5.80;83.86;99797.63;5112947;28;20027;-63
2023/01/15 05:38:54;;;;;;;13.45;5.97;;;;;;;5.85;83.58;99799.97;5111331;28;20462;-63
2023/01/15 05:41:54;;;;;;;16.85;5.70;;;;;;;5.83;83.95;99791.31;5112863;28;20031;-63
2023/01/15 05:44:14;;;;;;;15.07;5.70;;;;;;;5.85;84.74;99792.94;5109555;28;20035;-63
2023/01/15 05:46:42;;;;;;;15.88;5.55;;;;;;;5.82;84.72;99798.38;5112840;28;20110;-63
2023/01/15 05:49:10;;;;;;;10.63;5.38;;;;;;;5.83;84.22;99791.31;5109882;28;20064;-64
2023/01/15 05:51:39;;;;;;;13.13;5.93;;;;;;;5.84;84.95;99793.00;5112230;28;20297;-62
2023/01/15 05:54:07;;;;;;;13.18;4.85;;;;;;;5.87;84.40;99793.66;5112207;28;20031;-63
2023/01/15 05:56:41;;;;;;;12.40;5.75;;;;;;;5.81;85.36;99791.41;5112633;28;20023;-63
2023/01/15 05:59:07;;;;;;;13.98;5.55;;;;;;;5.80;85.21;99792.34;5095089;28;20024;-63
2023/01/15 06:01:34;;;;;;;16.45;5.82;;;;;;;5.82;85.50;99784.31;5092096;28;20028;-63
2023/01/15 06:04:01;;;;;;;20.65;5.82;;;;;;;5.79;86.48;99780.09;5090675;28;20054;-63
2023/01/15 06:06:27;;;;;;;18.02;5.97;;;;;;;5.80;86.80;99789.72;5092621;28;20043;-63
2023/01/15 06:08:55;;;;;;;14.57;5.45;;;;;;;5.88;86.37;99792.75;5089653;28;20034;-63
2023/01/15 06:11:21;;;;;;;13.55;5.03;;;;;;;5.83;86.10;99789.53;5091533;28;20040;-63
2023/01/15 06:13:46;;;;;;;17.55;5.70;;;;;;;5.89;85.86;99807.63;5090445;28;20036;-63
2023/01/15 06:16:12;;;;;;;11.30;5.68;;;;;;;5.83;86.67;99805.34;5090597;28;20035;-63
2023/01/15 06:18:38;;;;;;;16.88;5.40;;;;;;;5.89;85.08;99815.53;5093178;28;20030;-63
2023/01/15 06:21:05;;;;;;;15.20;5.63;;;;;;;5.82;85.60;99818.63;5111868;28;20024;-63
2023/01/15 06:23:31;;;;;;;13.48;5.07;;;;;;;5.89;85.46;99815.53;5093095;28;20095;-63
2023/01/15 06:26:01;;;;;;;12.13;5.82;;;;;;;5.80;86.79;99825.81;5111799;28;20541;-63
2023/01/15 06:28:26;;;;;;;16.05;5.32;;;;;;;5.73;86.17;99806.84;5093151;28;20024;-63
2023/01/15 06:30:52;;;;;;;14.88;5.32;;;;;;;5.71;86.29;99811.38;5093748;28;20032;-63
2023/01/15 06:33:18;;;;;;;14.27;5.57;;;;;;;5.73;85.55;99812.13;5111565;28;20367;-64
2023/01/15 06:35:43;;;;;;;15.10;5.22;;;;;;;5.71;85.56;99819.28;5094056;28;20059;-63
2023/01/15 06:38:09;;;;;;;12.25;5.65;;;;;;;5.78;84.72;99832.97;5093275;28;20070;-63
2023/01/15 06:40:38;;;;;;;12.68;5.63;;;;;;;5.73;84.89;99821.81;5076527;28;20035;-61
2023/01/15 06:48:32;;;;;;;12.88;5.25;;;;;;;5.56;85.23;99821.03;5110106;28;20116;-63
2023/01/15 06:50:58;;;;;;;8.32;4.70;;;;;;;5.56;84.57;99813.13;5093581;28;20482;-63
2023/01/15 06:53:23;;;;;;;17.05;5.18;;;;;;;5.53;84.68;99823.00;5092931;28;20418;-63
2023/01/15 06:55:49;;;;;;;12.93;4.97;;;;;;;5.51;84.25;99812.56;5093501;28;20019;-63
2023/01/15 06:58:15;;;;;;;14.85;5.47;;;;;;;5.51;84.54;99811.72;5089604;28;20085;-63
2023/01/15 07:00:45;;;;;;;14.25;5.15;;;;;;;5.47;85.35;99818.91;5090372;28;20024;-63
2023/01/15 07:03:13;;;;;;;;;;;;;;;5.66;84.30;99832.75;5091901;28;20024;-63
2023/01/15 07:05:41;;;;;;;14.85;5.13;;;;;;;5.50;84.49;99831.97;5093487;28;19908;-63
2023/01/15 07:08:06;;;;;;;14.52;5.50;;;;;;;5.46;84.92;99822.50;5093469;28;20067;-63
2023/01/15 07:10:34;;;;;;;13.30;5.60;;;;;;;5.54;84.72;99840.53;5076445;28;20051;-62
2023/01/15 07:13:02;;;;;;;15.63;5.38;;;;;;;5.47;84.45;99830.34;5093885;28;20110;-63
2023/01/15 07:15:27;;;;;;;12.15;4.93;;;;;;;5.43;85.00;99822.69;5095529;28;20020;-63
2023/01/15 07:17:54;;;;;;;9.15;5.80;;;;;;;5.46;85.18;99828.63;5110017;28;20020;-63
2023/01/15 07:20:20;;;;;;;14.60;5.88;;;;;;;5.40;84.63;99839.53;5114871;28;20401;-63
2023/01/15 07:22:48;;;;;;;10.60;5.30;;;;;;;5.39;84.70;99835.22;5080364;28;20054;-63
2023/01/15 07:25:14;;;;;;;9.80;5.10;;;;;;;5.37;85.85;99847.63;5114816;28;20031;-63
2023/01/15 07:27:40;;;;;;;15.90;5.93;;;;;;;5.45;84.56;99853.31;5079625;28;20142;-63
2023/01/15 07:30:07;;;;;;;15.45;5.25;;;;;;;5.38;84.45;99856.38;5096845;28;20035;-63
2023/01/15 07:32:33;;;;;;;12.00;5.68;;;;;;;5.45;83.36;99852.47;5114328;28;20095;-63
2023/01/15 07:34:59;;;;;;;10.13;4.75;;;;;;;5.43;83.57;99852.53;5114760;28;20031;-62
2023/01/15 07:37:24;;;;;;;17.80;6.40;;;;;;;5.45;82.63;99855.94;5076470;28;20032;-63
2023/01/15 07:39:50;;;;;;;8.07;4.65;;;;;;;5.52;81.21;99858.22;5094142;28;20115;-63
2023/01/15 07:50:28;;;;;;;13.30;5.97;;;;;;;5.53;81.04;99875.72;5079399;28;20120;-63
2023/01/15 07:52:53;;;;;;;12.48;4.88;;;;;;;5.50;81.65;99871.53;5076235;28;20484;-63
2023/01/15 07:55:19;;;;;;;7.40;4.50;;;;;;;5.46;82.07;99875.25;5075469;28;20030;-63
2023/01/15 07:57:44;;;;;;;12.80;5.40;;;;;;;5.47;82.03;99891.00;5095000;28;20032;-62
2023/01/15 08:00:14;;;;;;;13.88;5.63;;;;;;;5.41;82.21;99874.66;5079328;28;20427;-63
2023/01/15 08:02:40;;;;;;;8.98;4.93;;;;;;;5.44;81.58;99890.31;5094118;28;20110;-63
2023/01/15 08:05:06;;;;;;;9.55;4.97;;;;;;;5.48;79.59;99881.28;5112047;28;20596;-63
2023/01/15 08:07:39;;;;;;;9.40;5.22;;;;;;;5.39;80.66;99887.09;5092193;28;20044;-63
2023/01/15 08:10:11;;;;;;;13.77;5.10;;;;;;;5.45;78.97;99876.19;5092168;28;20020;-63
2023/01/15 08:15:42;;;;;;;12.95;5.00;;;;;;;5.26;81.20;99892.19;5071008;28;20038;-63
2023/01/15 08:18:08;;;;;;;10.30;5.35;;;;;;;5.29;80.32;99892.03;5054616;28;20396;-63
2023/01/15 08:20:35;;;;;;;12.98;5.78;;;;;;;5.17;80.49;99888.28;5074326;28;20063;-62
2023/01/15 08:23:00;;;;;;;8.15;4.82;;;;;;;5.27;79.57;99901.81;5104244;28;20016;-63
2023/01/15 08:25:26;;;;;;;8.35;5.13;;;;;;;5.16;80.62;99893.66;5093211;28;20339;-63
2023/01/15 08:27:52;;;;;;;13.27;5.22;;;;;;;5.11;80.51;99890.44;5091824;28;20462;-63
2023/01/15 08:30:23;;;;;;;7.70;5.03;;;;;;;5.10;80.32;99884.31;5092403;28;20164;-62
2023/01/15 08:32:49;;;;;;;10.07;5.63;;;;;;;5.07;81.12;99888.91;5094856;28;20027;-63
2023/01/15 08:35:14;;;;;;;10.82;5.32;;;;;;;5.05;80.98;99893.41;5113173;28;20024;-63
2023/01/15 08:37:43;;;;;;;10.60;5.10;;;;;;;5.01;80.40;99885.69;5114028;28;20076;-63
2023/01/15 08:40:10;;;;;;;9.73;5.70;;;;;;;5.06;80.90;99890.72;5112406;28;20118;-64
2023/01/15 08:42:36;;;;;;;13.52;5.60;;;;;;;5.06;81.30;99895.09;5095100;28;20439;-62
2023/01/15 08:45:02;;;;;;;8.75;5.40;;;;;;;5.04;82.77;99884.66;5095170;28;20032;-63
2023/01/15 08:47:30;;;;;;;11.50;4.85;;;;;;;5.11;81.29;99891.28;5070443;28;20475;-63
2023/01/15 08:49:56;;;;;;;10.52;6.32;;;;;;;5.09;81.97;99881.75;5081402;28;20039;-62
2023/01/15 08:52:21;;;;;;;13.00;5.50;;;;;;;5.10;82.28;99878.19;5074101;28;20051;-62
2023/01/15 08:54:49;;;;;;;9.80;5.15;;;;;;;5.16;81.84;99881.34;5096077;28;20112;-62
2023/01/15 08:57:15;;;;;;;7.63;5.32;;;;;;;5.13;81.48;99884.16;5052680;28;20028;-62
2023/01/15 08:59:42;;;;;;;9.70;5.68;;;;;;;5.23;81.60;99882.72;5094988;28;20045;-62
2023/01/15 09:02:12;;;;;;;14.65;5.65;;;;;;;5.18;82.10;99890.00;5076842;28;20455;-62
2023/01/15 09:04:40;;;;;;;9.48;4.97;;;;;;;5.27;82.20;99877.25;5098895;28;20023;-62
2023/01/15 09:07:08;;;;;;;11.30;5.78;;;;;;;5.20;82.38;99880.22;5096815;28;20031;-62
2023/01/15 09:09:34;;;;;;;10.13;5.32;;;;;;;5.29;81.41;99867.44;5088835;28;20027;-62
2023/01/15 09:12:00;;;;;;;9.52;5.15;;;;;;;5.38;81.12;99866.91;5075543;28;20038;-62
2023/01/15 09:14:26;;;;;;;13.18;5.38;;;;;;;5.31;82.22;99860.31;5099869;28;20023;-62
2023/01/15 09:16:54;;;;;;;15.15;6.07;;;;;;;5.36;81.31;99877.56;5090535;28;20038;-63
2023/01/15 09:19:20;;;;;;;11.37;5.73;;;;;;;5.34;82.18;99857.50;5092660;28;20024;-62
2023/01/15 09:21:46;;;;;;;15.35;5.60;;;;;;;5.40;82.35;99865.06;5091334;28;20289;-62
2023/01/15 09:24:11;;;;;;;12.75;5.13;;;;;;;5.46;81.15;99868.19;5071663;28;20020;-62
2023/01/15 09:26:38;;;;;;;14.65;6.43;;;;;;;5.46;81.37;99864.69;5066666;28;20035;-62
2023/01/15 09:29:05;;;;;;;16.02;6.18;;;;;;;5.61;80.58;99874.34;5098311;28;20087;-63
2023/01/15 09:31:30;;;;;;;12.45;5.80;;;;;;;5.66;81.27;99879.38;5105016;28;20023;-62
2023/01/15 09:33:56;;;;;;;12.70;5.53;;;;;;;5.79;80.09;99869.78;5081257;28;20096;-63
2023/01/15 09:36:31;;;;;;;16.58;6.22;;;;;;;5.80;79.17;99879.41;5103300;28;20046;-62
2023/01/15 09:38:58;;;;;;;13.25;6.38;;;;;;;5.83;79.59;99873.13;5089064;28;20127;-63
2023/01/15 09:44:32;;;;;;;12.73;5.68;;;;;;;6.09;79.83;99871.59;5106995;28;20092;-61
2023/01/15 09:47:16;;;;;;;13.35;5.22;;;;;;;6.10;79.14;99876.75;5094318;28;20086;-62
2023/01/15 09:49:50;;;;;;;12.73;5.43;;;;;;;6.11;79.47;99888.16;5102477;28;20078;-61
2023/01/15 09:52:29;;;;;;;11.77;5.57;;;;;;;6.08;79.24;99883.91;5092055;28;20052;-62
2023/01/15 09:55:12;;;;;;;17.95;5.47;;;;;;;6.10;78.44;99894.41;5108249;28;20066;-62
2023/01/15 09:57:39;;;;;;;12.15;5.60;;;;;;;6.19;77.92;99888.56;5093435;28;20023;-61
2023/01/15 10:00:12;;;;;;;13.85;5.50;;;;;;;6.25;76.63;99911.13;5112044;28;20064;-61
2023/01/15 10:03:01;;;;;;;11.73;5.45;;;;;;;6.27;76.86;99890.75;5112481;28;20027;-62
2023/01/15 10:05:35;;;;;;;9.40;4.13;;;;;;;6.37;75.37;99897.16;5111337;28;20016;-62
2023/01/15 10:08:13;;;;;;;12.73;4.88;;;;;;;6.37;75.53;99895.34;5093745;28;20032;-61
2023/01/15 10:10:46;;;;;;;13.60;4.85;;;;;;;6.33;76.05;99901.78;5093818;28;20051;-61
2023/01/15 10:13:41;;;;;;;10.05;5.35;;;;;;;6.37;76.43;99908.56;5106352;28;20032;-63
2023/01/15 10:16:10;;;;;;;10.13;4.90;;;;;;;6.48;74.13;99907.06;5085947;28;20054;-62
2023/01/15 10:18:35;;;;;;;13.38;5.00;;;;;;;6.42;74.27;99916.22;5083873;28;20558;-62
2023/01/15 10:21:20;;;;;;;8.80;4.85;;;;;;;6.47;74.56;99915.94;5081063;28;20030;-62
2023/01/15 10:24:01;;;;;;;10.48;5.15;;;;;;;6.61;74.57;99900.06;5100285;28;20483;-62
2023/01/15 10:26:47;;;;;;;13.23;4.85;;;;;;;6.86;74.45;99911.78;5091122;28;20043;-61
2023/01/15 10:29:42;;;;;;;13.43;4.72;;;;;;;6.94;73.94;99907.72;5092415;28;20032;-62
2023/01/15 10:32:49;;;;;;;12.43;4.50;;;;;;;6.81;74.33;99909.41;5091800;28;20383;-62
2023/01/15 10:35:39;;;;;;;11.23;4.95;;;;;;;6.60;74.01;99901.88;5105976;28;20027;-62
2023/01/15 10:38:12;;;;;;;8.93;4.72;;;;;;;6.70;73.97;99919.81;5096118;28;20150;-62
2023/01/15 10:40:49;;;;;;;13.35;5.40;;;;;;;6.92;72.93;99919.31;5115494;28;20028;-63
2023/01/15 10:43:52;;;;;;;11.52;5.03;;;;;;;7.26;73.19;99905.66;5106690;28;20035;-63
2023/01/15 10:46:24;;;;;;;11.30;4.72;;;;;;;7.42;70.71;99920.53;5115511;28;20024;-62
2023/01/15 10:48:58;;;;;;;8.88;4.07;;;;;;;7.67;71.01;99919.75;5097092;28;20038;-63
2023/01/15 10:51:41;;;;;;;10.43;4.68;;;;;;;7.73;70.33;99912.28;5095166;28;20019;-64
2023/01/15 10:54:06;;;;;;;12.20;4.22;;;;;;;7.79;69.37;99913.66;5105648;28;20906;-62
2023/01/15 10:56:42;;;;;;;9.30;4.10;;;;;;;7.61;70.50;99876.03;5088009;28;20035;-64
2023/01/15 10:59:45;;;;;;;9.13;3.88;;;;;;;8.00;68.49;99892.84;5110254;28;20019;-63
2023/01/15 11:02:49;;;;;;;7.70;3.78;;;;;;;8.02;68.21;99906.81;5108462;28;20393;-63
2023/01/15 11:05:18;;;;;;;10.10;4.68;;;;;;;7.87;68.53;99898.09;5100753;28;20024;-62
2023/01/15 11:07:49;;;;;;;7.00;4.17;;;;;;;7.99;67.27;99916.78;5085057;28;20619;-61
2023/01/15 11:10:18;;;;;;;12.07;3.92;;;;;;;7.66;68.74;99915.44;5104915;28;20292;-62
2023/01/15 11:21:17;;;;;;;6.82;3.50;;;;;;;8.11;68.00;99910.63;5099213;28;20031;-63
2023/01/15 11:23:43;;;;;;;9.63;3.90;;;;;;;8.03;67.54;99891.78;5092473;28;20038;-62
2023/01/15 11:26:18;;;;;;;5.90;3.63;;;;;;;8.03;67.20;99911.19;5114599;28;20070;-63
2023/01/15 11:28:45;;;;;;;5.90;3.15;;;;;;;8.03;67.12;99929.72;5113337;28;20028;-62
2023/01/15 11:31:12;;;;;;;6.28;3.40;;;;;;;7.87;68.61;99906.03;5093336;28;20081;-62
2023/01/15 11:33:39;;;;;;;6.97;3.60;;;;;;;7.90;68.01;99910.28;5102863;28;20046;-63
2023/01/15 11:36:17;;;;;;;9.55;3.55;;;;;;;7.77;68.82;99912.06;5096832;28;20023;-62
2023/01/15 11:38:45;;;;;;;5.38;3.53;;;;;;;7.71;68.72;99908.03;5113525;28;20539;-62
2023/01/15 11:52:54;;;;;;;8.25;3.80;;;;;;;7.12;71.84;99907.47;5094968;28;20427;-62
2023/01/15 11:55:23;;;;;;;9.38;3.50;;;;;;;7.44;70.53;99915.97;5113327;28;20031;-63
2023/01/15 11:57:49;;;;;;;6.22;3.78;;;;;;;7.39;69.73;99921.56;5108817;28;20050;-62
2023/01/15 12:00:27;;;;;;;5.68;4.05;;;;;;;7.25;71.18;99918.97;5076497;28;20479;-63
2023/01/15 12:03:24;;;;;;;7.28;4.40;;;;;;;7.27;71.10;99922.38;5103739;28;20106;-62
2023/01/15 12:06:05;;;;;;;7.40;4.03;;;;;;;7.21;70.74;99926.25;5112714;28;20027;-63
2023/01/15 12:08:55;;;;;;;7.63;3.15;;;;;;;7.33;70.26;99924.63;5103287;28;20030;-62
2023/01/15 12:11:58;;;;;;;6.82;4.20;;;;;;;7.14;71.97;99921.44;5111066;28;20168;-63
2023/01/15 12:14:37;;;;;;;4.13;3.63;;;;;;;6.93;72.93;99908.63;5096392;28;20031;-63
2023/01/15 12:17:42;;;;;;;7.05;4.35;;;;;;;6.98;73.03;99901.28;5106443;28;20032;-63
2023/01/15 12:20:50;;;;;;;6.90;4.25;;;;;;;7.00;73.82;99896.75;5048710;28;20506;-63
2023/01/15 12:23:22;;;;;;;5.80;4.03;;;;;;;6.96;72.74;99921.66;5037722;28;20047;-61
2023/01/15 12:26:21;;;;;;;9.75;4.03;;;;;;;6.98;72.87;99885.41;5093900;28;20463;-62
2023/01/15 12:28:52;;;;;;;8.18;4.20;;;;;;;6.84;73.37;99906.56;5096473;28;20507;-62
2023/01/15 12:31:24;;;;;;;9.77;4.15;;;;;;;6.79;72.76;99906.88;5084783;28;20122;-63
2023/01/15 12:34:13;;;;;;;7.55;4.18;;;;;;;6.93;73.03;99906.00;5111800;28;20476;-62
2023/01/15 12:37:04;;;;;;;5.00;4.03;;;;;;;7.00;72.16;99882.66;5103231;28;20039;-62
2023/01/15 12:39:37;;;;;;;4.57;4.13;;;;;;;6.79;72.71;99892.78;5113198;28;20032;-62
2023/01/15 12:45:11;;;;;;;7.65;4.47;;;;;;;7.01;73.19;99911.66;5114104;28;20108;-63
2023/01/15 12:47:45;;;;;;;6.90;4.57;;;;;;;6.82;73.36;99879.38;5111581;28;20449;-63
2023/01/15 12:50:22;;;;;;;4.75;4.18;;;;;;;6.78;73.15;99902.53;5097665;28;20444;-63